Time;durP1;ratioP1;P1;durP2;ratioP2;P2;SDS_P1;SDS_P2;PMS_P1;PMS_P2;Temp;Humidity;BMP_temperature;BMP_pressure;BME280_temperature;BME280_humidity;BME280_pressure;Samples;Min_cycle;Max_cycle;Signal;HPM_P1;HPM_P2
2023/07/26 00:00:14;;;;;;;;;;;;;;;;;;5093592;28;20003;-69
2023/07/26 00:02:41;;;;;;;;;;;;;;;;;;5093907;28;20019;-69
2023/07/26 00:05:08;;;;;;;;;;;;;;;;;;5092666;28;20026;-69
2023/07/26 00:07:35;;;;;;;;;;;;;;;;;;5093281;28;20023;-68
2023/07/26 00:10:09;;;;;;;;;;;;;;;;;;5131149;27;19912;-69
2023/07/26 00:12:36;;;;;;;;;;;;;;;;;;5131169;28;19947;-69
2023/07/26 00:15:03;;;;;;;;;;;;;;;;;;5131362;28;20014;-69
2023/07/26 00:17:30;;;;;;;;;;;;;;;;;;5131125;28;19924;-69
2023/07/26 00:19:57;;;;;;;;;;;;;;;;;;5130856;28;19977;-69
2023/07/26 00:22:24;;;;;;;;;;;;;;;;;;5120032;28;19947;-69
2023/07/26 00:24:51;;;;;;;;;;;;;;;;;;5110258;28;19928;-69
2023/07/26 00:27:18;;;;;;;;;;;;;;;;;;5110323;28;19924;-69
2023/07/26 00:29:45;;;;;;;;;;;;;;;;;;5109578;28;19967;-69
2023/07/26 00:32:12;;;;;;;;;;;;;;;;;;5113338;28;19924;-69
2023/07/26 00:34:39;;;;;;;;;;;;;;;;;;5109709;28;20391;-69
2023/07/26 00:37:06;;;;;;;;;;;;;;;;;;5109836;28;19924;-69
2023/07/26 00:39:33;;;;;;;;;;;;;;;;;;5110907;28;19930;-70
2023/07/26 00:42:00;;;;;;;;;;;;;;;;;;5130443;28;20034;-69
2023/07/26 00:44:27;;;;;;;;;;;;;;;;;;5130326;28;19962;-69
2023/07/26 00:46:54;;;;;;;;;;;;;;;;;;5130370;28;19930;-69
2023/07/26 00:49:21;;;;;;;;;;;;;;;;;;5130485;28;19969;-70
2023/07/26 00:51:48;;;;;;;;;;;;;;;;;;5130334;28;19928;-69
2023/07/26 00:54:15;;;;;;;;;;;;;;;;;;5130389;28;20496;-69
2023/07/26 00:56:42;;;;;;;;;;;;;;;;;;5129605;28;20363;-69
2023/07/26 00:59:09;;;;;;;;;;;;;;;;;;5130491;28;20392;-69
2023/07/26 01:01:36;;;;;;;;;;;;;;;;;;5130235;28;19955;-69
2023/07/26 01:04:03;;;;;;;;;;;;;;;;;;5130332;28;19957;-70
2023/07/26 01:06:29;;;;;;;;;;;;;;;;;;5130165;28;20324;-69
2023/07/26 01:08:56;;;;;;;;;;;;;;;;;;5140564;27;20027;-69
2023/07/26 01:11:23;;;;;;;;;;;;;;;;;;5150569;27;20030;-69
2023/07/26 01:13:50;;;;;;;;;;;;;;;;;;5149853;27;20006;-69
2023/07/26 01:16:17;;;;;;;;;;;;;;;;;;5150722;27;20021;-69
2023/07/26 01:18:44;;;;;;;;;;;;;;;;;;5150785;27;20018;-69
2023/07/26 01:21:11;;;;;;;;;;;;;;;;;;5138612;27;20017;-69
2023/07/26 01:23:39;;;;;;;;;;;;;;;;;;5136501;27;20351;-69
2023/07/26 01:26:06;;;;;;;;;;;;;;;;;;5131201;27;19927;-69
2023/07/26 01:28:33;;;;;;;;;;;;;;;;;;5135814;27;19927;-69
2023/07/26 01:31:00;;;;;;;;;;;;;;;;;;5135109;27;19924;-69
2023/07/26 01:33:27;;;;;;;;;;;;;;;;;;5136406;27;20464;-69
2023/07/26 01:35:54;;;;;;;;;;;;;;;;;;5136364;27;20366;-69
2023/07/26 01:38:21;;;;;;;;;;;;;;;;;;5136250;27;20324;-69
2023/07/26 01:40:47;;;;;;;;;;;;;;;;;;5136283;27;19962;-70
2023/07/26 01:43:14;;;;;;;;;;;;;;;;;;5124640;27;19946;-69
2023/07/26 01:45:41;;;;;;;;;;;;;;;;;;5115614;28;19969;-69
2023/07/26 01:48:08;;;;;;;;;;;;;;;;;;5115781;27;19963;-69
2023/07/26 01:50:35;;;;;;;;;;;;;;;;;;5115193;28;20022;-69
2023/07/26 01:53:02;;;;;;;;;;;;;;;;;;5115286;28;20026;-69
2023/07/26 01:55:30;;;;;;;;;;;;;;;;;;5115790;28;19924;-69
2023/07/26 01:57:56;;;;;;;;;;;;;;;;;;5115335;28;20378;-69
2023/07/26 02:00:23;;;;;;;;;;;;;;;;;;5115288;28;19924;-69
2023/07/26 02:02:50;;;;;;;;;;;;;;;;;;5115284;28;20420;-69
2023/07/26 02:05:17;;;;;;;;;;;;;;;;;;5116280;27;20318;-69
2023/07/26 02:07:44;;;;;;;;;;;;;;;;;;5121217;27;19923;-69
2023/07/26 02:10:11;;;;;;;;;;;;;;;;;;5119899;27;20015;-69
2023/07/26 02:12:38;;;;;;;;;;;;;;;;;;5123363;27;20369;-69
2023/07/26 02:15:05;;;;;;;;;;;;;;;;;;5123156;27;20439;-69
2023/07/26 02:17:32;;;;;;;;;;;;;;;;;;5130435;27;20342;-69
2023/07/26 02:19:59;;;;;;;;;;;;;;;;;;5129313;27;20374;-69
2023/07/26 02:22:26;;;;;;;;;;;;;;;;;;5124943;27;19935;-69
2023/07/26 02:24:53;;;;;;;;;;;;;;;;;;5114773;28;20010;-69
2023/07/26 02:27:20;;;;;;;;;;;;;;;;;;5119021;27;19981;-69
2023/07/26 02:29:47;;;;;;;;;;;;;;;;;;5131276;27;20014;-69
2023/07/26 02:32:14;;;;;;;;;;;;;;;;;;5133862;27;20022;-69
2023/07/26 02:34:41;;;;;;;;;;;;;;;;;;5134810;27;20010;-69
2023/07/26 02:37:08;;;;;;;;;;;;;;;;;;5134436;27;20018;-69
2023/07/26 02:39:35;;;;;;;;;;;;;;;;;;5114821;27;19931;-70
2023/07/26 02:42:02;;;;;;;;;;;;;;;;;;5114393;28;19978;-69
2023/07/26 02:44:29;;;;;;;;;;;;;;;;;;5114074;28;20018;-69
2023/07/26 02:46:56;;;;;;;;;;;;;;;;;;5113888;28;19982;-69
2023/07/26 02:49:23;;;;;;;;;;;;;;;;;;5114066;28;20374;-69
2023/07/26 02:51:50;;;;;;;;;;;;;;;;;;5113887;28;20006;-69
2023/07/26 02:54:17;;;;;;;;;;;;;;;;;;5115521;27;19930;-69
2023/07/26 02:56:44;;;;;;;;;;;;;;;;;;5134670;27;20002;-69
2023/07/26 02:59:11;;;;;;;;;;;;;;;;;;5135192;27;19976;-69
2023/07/26 03:01:38;;;;;;;;;;;;;;;;;;5134656;27;20339;-69
2023/07/26 03:04:05;;;;;;;;;;;;;;;;;;5134892;27;20348;-69
2023/07/26 03:06:32;;;;;;;;;;;;;;;;;;5122699;27;20553;-69
2023/07/26 03:08:59;;;;;;;;;;;;;;;;;;5123719;27;19924;-70
2023/07/26 03:11:26;;;;;;;;;;;;;;;;;;5131493;27;19976;-69
2023/07/26 03:13:53;;;;;;;;;;;;;;;;;;5130816;27;19927;-69
2023/07/26 03:16:20;;;;;;;;;;;;;;;;;;5131677;27;19924;-69
2023/07/26 03:18:47;;;;;;;;;;;;;;;;;;5113419;28;19967;-70
2023/07/26 03:21:14;;;;;;;;;;;;;;;;;;5114051;28;19930;-69
2023/07/26 03:23:41;;;;;;;;;;;;;;;;;;5113852;28;20026;-69
2023/07/26 03:26:08;;;;;;;;;;;;;;;;;;5131507;27;19931;-69
2023/07/26 03:28:35;;;;;;;;;;;;;;;;;;5130723;27;19930;-69
2023/07/26 03:31:02;;;;;;;;;;;;;;;;;;5113370;28;20443;-69
2023/07/26 03:33:28;;;;;;;;;;;;;;;;;;5113545;28;19977;-69
2023/07/26 03:35:55;;;;;;;;;;;;;;;;;;5113447;28;20010;-69
2023/07/26 03:38:22;;;;;;;;;;;;;;;;;;5113441;28;19976;-69
2023/07/26 03:40:49;;;;;;;;;;;;;;;;;;5112924;27;20006;-69
2023/07/26 03:43:16;;;;;;;;;;;;;;;;;;5124793;27;19923;-69
2023/07/26 03:45:43;;;;;;;;;;;;;;;;;;5128721;27;20018;-69
2023/07/26 03:48:10;;;;;;;;;;;;;;;;;;5113177;28;19974;-69
2023/07/26 03:50:37;;;;;;;;;;;;;;;;;;5113129;28;20358;-69
2023/07/26 03:53:04;;;;;;;;;;;;;;;;;;5113242;28;20339;-69
2023/07/26 03:55:31;;;;;;;;;;;;;;;;;;5118300;27;20370;-69
2023/07/26 03:57:58;;;;;;;;;;;;;;;;;;5126352;27;20010;-68
2023/07/26 04:00:25;;;;;;;;;;;;;;;;;;5133419;27;19963;-69
2023/07/26 04:02:52;;;;;;;;;;;;;;;;;;5119122;27;19930;-69
2023/07/26 04:05:19;;;;;;;;;;;;;;;;;;5133873;28;19976;-69
2023/07/26 04:07:46;;;;;;;;;;;;;;;;;;5133664;28;20381;-70
2023/07/26 04:10:13;;;;;;;;;;;;;;;;;;5131149;28;20378;-69
2023/07/26 04:12:40;;;;;;;;;;;;;;;;;;5114736;28;20018;-69
2023/07/26 04:15:07;;;;;;;;;;;;;;;;;;5132875;28;19963;-69
2023/07/26 04:17:34;;;;;;;;;;;;;;;;;;5130849;28;20041;-69
2023/07/26 04:20:01;;;;;;;;;;;;;;;;;;5124351;28;20006;-69
2023/07/26 04:22:28;;;;;;;;;;;;;;;;;;5112488;28;20023;-69
2023/07/26 04:24:55;;;;;;;;;;;;;;;;;;5120380;28;19930;-69
2023/07/26 04:27:22;;;;;;;;;;;;;;;;;;5133257;28;20469;-69
2023/07/26 04:29:49;;;;;;;;;;;;;;;;;;5133384;28;19923;-69
2023/07/26 04:32:16;;;;;;;;;;;;;;;;;;5133711;28;19981;-69
2023/07/26 04:34:43;;;;;;;;;;;;;;;;;;5133555;28;20022;-69
2023/07/26 04:37:10;;;;;;;;;;;;;;;;;;5124771;28;19931;-69
2023/07/26 04:39:37;;;;;;;;;;;;;;;;;;5112448;28;19978;-70
2023/07/26 04:42:04;;;;;;;;;;;;;;;;;;5112935;28;19978;-69
2023/07/26 04:44:31;;;;;;;;;;;;;;;;;;5112294;28;20010;-69
2023/07/26 04:46:58;;;;;;;;;;;;;;;;;;5112545;28;20011;-69
2023/07/26 04:49:25;;;;;;;;;;;;;;;;;;5112535;28;20309;-69
2023/07/26 04:51:52;;;;;;;;;;;;;;;;;;5112862;28;19959;-69
2023/07/26 04:54:18;;;;;;;;;;;;;;;;;;5122230;27;19928;-69
2023/07/26 04:56:45;;;;;;;;;;;;;;;;;;5136618;27;20433;-69
2023/07/26 04:59:12;;;;;;;;;;;;;;;;;;5137086;27;20402;-69
2023/07/26 05:01:39;;;;;;;;;;;;;;;;;;5136717;27;20464;-69
2023/07/26 05:04:06;;;;;;;;;;;;;;;;;;5135247;27;20285;-69
2023/07/26 05:06:33;;;;;;;;;;;;;;;;;;5119586;27;20022;-69
2023/07/26 05:09:00;;;;;;;;;;;;;;;;;;5116050;28;19966;-69
2023/07/26 05:11:27;;;;;;;;;;;;;;;;;;5127306;27;19923;-69
2023/07/26 05:13:54;;;;;;;;;;;;;;;;;;5136939;27;20409;-69
2023/07/26 05:16:24;;;;;;;;;;;;;;;;;;5136909;27;20018;-70
2023/07/26 05:18:53;;;;;;;;;;;;;;;;;;5136824;27;20002;-68
2023/07/26 05:21:20;;;;;;;;;;;;;;;;;;5136858;27;19927;-68
2023/07/26 05:23:47;;;;;;;;;;;;;;;;;;5136600;27;19923;-68
2023/07/26 05:26:14;;;;;;;;;;;;;;;;;;5135347;27;19923;-67
2023/07/26 05:28:41;;;;;;;;;;;;;;;;;;5119843;27;20149;-68
2023/07/26 05:31:08;;;;;;;;;;;;;;;;;;5115326;28;19979;-68
2023/07/26 05:33:35;;;;;;;;;;;;;;;;;;5115563;28;19928;-67
2023/07/26 05:36:02;;;;;;;;;;;;;;;;;;5116193;28;20018;-67
2023/07/26 05:38:29;;;;;;;;;;;;;;;;;;5115801;28;19924;-67
2023/07/26 05:40:56;;;;;;;;;;;;;;;;;;5115692;28;20018;-67
2023/07/26 05:43:23;;;;;;;;;;;;;;;;;;5116660;27;20014;-67
2023/07/26 05:45:50;;;;;;;;;;;;;;;;;;5129530;27;20018;-64
2023/07/26 05:48:17;;;;;;;;;;;;;;;;;;5115447;28;19924;-67
2023/07/26 05:50:47;;;;;;;;;;;;;;;;;;5128138;27;19968;-67
2023/07/26 05:53:14;;;;;;;;;;;;;;;;;;5136133;27;20341;-68
2023/07/26 05:55:41;;;;;;;;;;;;;;;;;;5136042;27;19923;-68
2023/07/26 05:58:08;;;;;;;;;;;;;;;;;;5136226;27;19978;-69
2023/07/26 06:00:35;;;;;;;;;;;;;;;;;;5135736;27;19923;-68
2023/07/26 06:03:02;;;;;;;;;;;;;;;;;;5135043;27;19934;-68
2023/07/26 06:05:29;;;;;;;;;;;;;;;;;;5123394;27;19962;-68
2023/07/26 06:07:56;;;;;;;;;;;;;;;;;;5123439;27;20424;-68
2023/07/26 06:10:23;;;;;;;;;;;;;;;;;;5124361;27;19923;-68
2023/07/26 06:12:50;;;;;;;;;;;;;;;;;;5130281;27;20006;-68
2023/07/26 06:15:17;;;;;;;;;;;;;;;;;;5135574;27;20019;-68
2023/07/26 06:17:44;;;;;;;;;;;;;;;;;;5135644;27;19959;-68
2023/07/26 06:20:11;;;;;;;;;;;;;;;;;;5117796;27;20018;-67
2023/07/26 06:22:38;;;;;;;;;;;;;;;;;;5114924;28;19924;-68
2023/07/26 06:25:05;;;;;;;;;;;;;;;;;;5122459;27;19923;-68
2023/07/26 06:27:32;;;;;;;;;;;;;;;;;;5116586;27;20010;-68
2023/07/26 06:29:59;;;;;;;;;;;;;;;;;;5114140;28;20436;-68
2023/07/26 06:32:26;;;;;;;;;;;;;;;;;;5114083;28;19927;-68
2023/07/26 06:34:53;;;;;;;;;;;;;;;;;;5113710;28;19967;-68
2023/07/26 06:37:20;;;;;;;;;;;;;;;;;;5114568;27;20014;-67
2023/07/26 06:39:47;;;;;;;;;;;;;;;;;;5114253;28;20441;-68
2023/07/26 06:42:14;;;;;;;;;;;;;;;;;;5114948;27;20339;-67
2023/07/26 06:44:41;;;;;;;;;;;;;;;;;;5124576;27;20313;-68
2023/07/26 06:47:08;;;;;;;;;;;;;;;;;;5134678;27;20278;-68
2023/07/26 06:49:35;;;;;;;;;;;;;;;;;;5128789;27;19927;-68
2023/07/26 06:52:02;;;;;;;;;;;;;;;;;;5117691;27;19953;-68
2023/07/26 06:54:29;;;;;;;;;;;;;;;;;;5114392;27;19974;-68
2023/07/26 06:56:57;;;;;;;;;;;;;;;;;;5113593;28;19928;-69
2023/07/26 06:59:24;;;;;;;;;;;;;;;;;;5113981;28;19988;-68
2023/07/26 07:01:51;;;;;;;;;;;;;;;;;;5129457;27;20279;-69
2023/07/26 07:04:18;;;;;;;;;;;;;;;;;;5120238;27;19977;-69
2023/07/26 07:06:45;;;;;;;;;;;;;;;;;;5112004;28;19930;-69
2023/07/26 07:09:12;;;;;;;;;;;;;;;;;;5113041;28;19963;-69
2023/07/26 07:11:39;;;;;;;;;;;;;;;;;;5113361;28;19979;-68
2023/07/26 07:14:06;;;;;;;;;;;;;;;;;;5113342;28;20018;-69
2023/07/26 07:16:33;;;;;;;;;;;;;;;;;;5112780;28;20014;-67
2023/07/26 07:18:59;;;;;;;;;;;;;;;;;;5112591;28;19930;-69
2023/07/26 07:21:26;;;;;;;;;;;;;;;;;;5113215;28;19923;-67
2023/07/26 07:23:53;;;;;;;;;;;;;;;;;;5113165;28;20026;-69
2023/07/26 07:26:20;;;;;;;;;;;;;;;;;;5113167;28;19924;-69
2023/07/26 07:28:47;;;;;;;;;;;;;;;;;;5113309;28;19959;-70
2023/07/26 07:31:14;;;;;;;;;;;;;;;;;;5112835;28;20022;-69
2023/07/26 07:33:41;;;;;;;;;;;;;;;;;;5112761;28;19962;-71
2023/07/26 07:36:10;;;;;;;;;;;;;;;;;;5113133;28;19955;-69
2023/07/26 07:38:37;;;;;;;;;;;;;;;;;;5119213;27;19927;-69
2023/07/26 07:41:04;;;;;;;;;;;;;;;;;;5113180;28;19963;-69
2023/07/26 07:43:31;;;;;;;;;;;;;;;;;;5113890;28;20256;-69
2023/07/26 07:45:58;;;;;;;;;;;;;;;;;;5112787;28;19923;-69
2023/07/26 07:48:26;;;;;;;;;;;;;;;;;;5129899;27;19959;-69
2023/07/26 07:50:53;;;;;;;;;;;;;;;;;;5133206;27;20374;-69
2023/07/26 07:53:20;;;;;;;;;;;;;;;;;;5130908;27;20460;-70
2023/07/26 07:55:47;;;;;;;;;;;;;;;;;;5115405;27;19924;-69
2023/07/26 07:58:14;;;;;;;;;;;;;;;;;;5112387;28;20379;-69
2023/07/26 08:00:41;;;;;;;;;;;;;;;;;;5119144;27;20374;-69
2023/07/26 08:03:08;;;;;;;;;;;;;;;;;;5133435;27;20410;-69
2023/07/26 08:05:35;;;;;;;;;;;;;;;;;;5133508;27;19923;-69
2023/07/26 08:08:02;;;;;;;;;;;;;;;;;;5133694;27;20022;-70
2023/07/26 08:10:29;;;;;;;;;;;;;;;;;;5117822;28;20010;-70
2023/07/26 08:12:56;;;;;;;;;;;;;;;;;;5132156;28;20026;-69
2023/07/26 08:15:23;;;;;;;;;;;;;;;;;;5127326;28;19971;-69
2023/07/26 08:17:50;;;;;;;;;;;;;;;;;;5118448;28;20387;-69
2023/07/26 08:20:17;;;;;;;;;;;;;;;;;;5133390;28;19951;-69
2023/07/26 08:22:44;;;;;;;;;;;;;;;;;;5132874;28;20021;-69
2023/07/26 08:25:11;;;;;;;;;;;;;;;;;;5132864;28;19939;-67
2023/07/26 08:27:38;;;;;;;;;;;;;;;;;;5129775;28;20130;-69
2023/07/26 08:30:05;;;;;;;;;;;;;;;;;;5126437;27;20018;-68
2023/07/26 08:32:32;;;;;;;;;;;;;;;;;;5137100;27;19994;-68
2023/07/26 08:34:59;;;;;;;;;;;;;;;;;;5136189;27;20018;-68
2023/07/26 08:37:26;;;;;;;;;;;;;;;;;;5137405;27;20022;-69
2023/07/26 08:39:53;;;;;;;;;;;;;;;;;;5137414;27;20007;-69
2023/07/26 08:42:20;;;;;;;;;;;;;;;;;;5136886;27;19986;-68
2023/07/26 08:44:47;;;;;;;;;;;;;;;;;;5136755;27;19954;-69
2023/07/26 08:47:14;;;;;;;;;;;;;;;;;;5137013;27;19970;-70
2023/07/26 08:49:40;;;;;;;;;;;;;;;;;;5136773;27;19971;-68
2023/07/26 08:52:08;;;;;;;;;;;;;;;;;;5128022;27;20022;-68
2023/07/26 08:54:35;;;;;;;;;;;;;;;;;;5116466;28;19930;-69
2023/07/26 08:57:02;;;;;;;;;;;;;;;;;;5116063;28;20026;-69
2023/07/26 08:59:29;;;;;;;;;;;;;;;;;;5116125;28;20014;-69
2023/07/26 09:01:56;;;;;;;;;;;;;;;;;;5115994;28;19992;-69
2023/07/26 09:04:23;;;;;;;;;;;;;;;;;;5124626;27;19924;-69
2023/07/26 09:06:50;;;;;;;;;;;;;;;;;;5136744;27;19962;-69
2023/07/26 09:09:17;;;;;;;;;;;;;;;;;;5126325;27;20056;-68
2023/07/26 09:11:44;;;;;;;;;;;;;;;;;;5118936;27;19923;-68
2023/07/26 09:14:11;;;;;;;;;;;;;;;;;;5126988;27;20007;-68
2023/07/26 09:16:38;;;;;;;;;;;;;;;;;;5136006;27;19934;-69
2023/07/26 09:19:05;;;;;;;;;;;;;;;;;;5118218;27;19984;-68
2023/07/26 09:21:32;;;;;;;;;;;;;;;;;;5116379;27;19978;-68
2023/07/26 09:23:59;;;;;;;;;;;;;;;;;;5115840;28;19928;-69
2023/07/26 09:26:26;;;;;;;;;;;;;;;;;;5116144;27;20011;-69
2023/07/26 09:28:53;;;;;;;;;;;;;;;;;;5115340;28;20010;-67
2023/07/26 09:31:20;;;;;;;;;;;;;;;;;;5115478;28;19923;-68
2023/07/26 09:33:47;;;;;;;;;;;;;;;;;;5115653;28;20011;-68
2023/07/26 09:36:14;;;;;;;;;;;;;;;;;;5115649;28;19951;-68
2023/07/26 09:38:42;;;;;;;;;;;;;;;;;;5115821;28;19923;-68
2023/07/26 09:41:08;;;;;;;;;;;;;;;;;;5114896;28;19928;-68
2023/07/26 09:43:36;;;;;;;;;;;;;;;;;;5127741;27;20335;-67
2023/07/26 09:46:03;;;;;;;;;;;;;;;;;;5130152;27;20038;-68
2023/07/26 09:48:30;;;;;;;;;;;;;;;;;;5115423;28;20206;-68
2023/07/26 09:50:57;;;;;;;;;;;;;;;;;;5115185;28;20018;-68
2023/07/26 09:53:23;;;;;;;;;;;;;;;;;;5115262;28;20014;-68
2023/07/26 09:55:51;;;;;;;;;;;;;;;;;;5115305;28;20030;-67
2023/07/26 09:58:18;;;;;;;;;;;;;;;;;;5114676;28;19924;-68
2023/07/26 10:00:45;;;;;;;;;;;;;;;;;;5128322;27;19923;-68
2023/07/26 10:03:12;;;;;;;;;;;;;;;;;;5129261;27;19931;-68
2023/07/26 10:05:39;;;;;;;;;;;;;;;;;;5119888;27;20015;-68
2023/07/26 10:08:06;;;;;;;;;;;;;;;;;;5114743;28;20413;-69
2023/07/26 10:10:33;;;;;;;;;;;;;;;;;;5114629;28;20405;-69
2023/07/26 10:13:00;;;;;;;;;;;;;;;;;;5115020;28;20455;-68
2023/07/26 10:15:30;;;;;;;;;;;;;;;;;;5114937;28;19924;-69
2023/07/26 10:17:56;;;;;;;;;;;;;;;;;;5114909;28;19924;-70
2023/07/26 10:20:23;;;;;;;;;;;;;;;;;;5116957;27;19924;-70
2023/07/26 10:22:50;;;;;;;;;;;;;;;;;;5114129;27;19924;-69
2023/07/26 10:25:18;;;;;;;;;;;;;;;;;;5113960;28;19976;-70
2023/07/26 10:27:45;;;;;;;;;;;;;;;;;;5114260;28;20023;-68
2023/07/26 10:30:11;;;;;;;;;;;;;;;;;;5113956;28;20461;-69
2023/07/26 10:32:38;;;;;;;;;;;;;;;;;;5113997;28;19927;-69
2023/07/26 10:35:05;;;;;;;;;;;;;;;;;;5114133;28;20022;-69
2023/07/26 10:37:32;;;;;;;;;;;;;;;;;;5113976;28;19959;-69
2023/07/26 10:39:59;;;;;;;;;;;;;;;;;;5114203;28;20020;-69
2023/07/26 10:42:26;;;;;;;;;;;;;;;;;;5114581;28;20022;-69
2023/07/26 10:44:53;;;;;;;;;;;;;;;;;;5115670;27;20011;-69
2023/07/26 10:47:20;;;;;;;;;;;;;;;;;;5122948;27;20014;-68
2023/07/26 10:49:47;;;;;;;;;;;;;;;;;;5135173;27;20014;-69
2023/07/26 10:52:14;;;;;;;;;;;;;;;;;;5130160;27;19931;-69
2023/07/26 10:54:42;;;;;;;;;;;;;;;;;;5134095;27;20030;-68
2023/07/26 10:57:08;;;;;;;;;;;;;;;;;;5134027;27;19933;-68
2023/07/26 10:59:35;;;;;;;;;;;;;;;;;;5132042;27;19924;-70
2023/07/26 11:02:02;;;;;;;;;;;;;;;;;;5115580;27;20026;-67
2023/07/26 11:04:29;;;;;;;;;;;;;;;;;;5129248;27;19927;-69
2023/07/26 11:06:56;;;;;;;;;;;;;;;;;;5134017;27;19982;-66
2023/07/26 11:09:24;;;;;;;;;;;;;;;;;;5114499;27;19963;-67
2023/07/26 11:11:51;;;;;;;;;;;;;;;;;;5114005;28;19986;-68
2023/07/26 11:14:18;;;;;;;;;;;;;;;;;;5114083;28;19969;-68
2023/07/26 11:16:45;;;;;;;;;;;;;;;;;;5113368;28;19930;-67
2023/07/26 11:19:12;;;;;;;;;;;;;;;;;;5113917;28;20018;-70
2023/07/26 11:21:39;;;;;;;;;;;;;;;;;;5113374;28;19928;-69
2023/07/26 11:24:05;;;;;;;;;;;;;;;;;;5114246;28;20018;-68
2023/07/26 11:26:32;;;;;;;;;;;;;;;;;;5133416;27;19963;-68
2023/07/26 11:28:59;;;;;;;;;;;;;;;;;;5132947;27;20014;-68
2023/07/26 11:31:26;;;;;;;;;;;;;;;;;;5113166;28;19927;-69
2023/07/26 11:33:53;;;;;;;;;;;;;;;;;;5113470;28;19970;-68
2023/07/26 11:36:21;;;;;;;;;;;;;;;;;;5113092;28;19924;-68
2023/07/26 11:38:48;;;;;;;;;;;;;;;;;;5113288;28;19992;-68
2023/07/26 11:41:15;;;;;;;;;;;;;;;;;;5114250;27;19949;-69
2023/07/26 11:43:42;;;;;;;;;;;;;;;;;;5133890;27;20018;-68
2023/07/26 11:46:09;;;;;;;;;;;;;;;;;;5133735;27;19923;-68
2023/07/26 11:48:36;;;;;;;;;;;;;;;;;;5133830;27;19947;-68
2023/07/26 11:51:05;;;;;;;;;;;;;;;;;;5133670;27;20035;-68
2023/07/26 11:53:32;;;;;;;;;;;;;;;;;;5131396;27;20466;-68
2023/07/26 11:55:59;;;;;;;;;;;;;;;;;;5116385;27;19972;-69
2023/07/26 11:58:26;;;;;;;;;;;;;;;;;;5113537;27;20006;-68
2023/07/26 12:00:55;;;;;;;;;;;;;;;;;;5112751;28;19924;-68
2023/07/26 12:03:22;;;;;;;;;;;;;;;;;;5113012;28;20283;-68
2023/07/26 12:05:49;;;;;;;;;;;;;;;;;;5112270;28;19938;-68
2023/07/26 12:08:17;;;;;;;;;;;;;;;;;;5112538;28;20425;-68
2023/07/26 12:10:44;;;;;;;;;;;;;;;;;;5112814;28;20019;-69
2023/07/26 12:13:11;;;;;;;;;;;;;;;;;;5112697;28;19930;-68
2023/07/26 12:15:38;;;;;;;;;;;;;;;;;;5113564;28;20032;-68
2023/07/26 12:18:05;;;;;;;;;;;;;;;;;;5112764;28;19982;-69
2023/07/26 12:20:32;;;;;;;;;;;;;;;;;;5112388;28;19971;-69
2023/07/26 12:23:00;;;;;;;;;;;;;;;;;;5112258;28;20275;-70
2023/07/26 12:25:27;;;;;;;;;;;;;;;;;;5112786;28;19931;-69
2023/07/26 12:27:54;;;;;;;;;;;;;;;;;;5112341;28;19924;-69
2023/07/26 12:30:21;;;;;;;;;;;;;;;;;;5114977;28;19935;-69
2023/07/26 12:32:48;;;;;;;;;;;;;;;;;;5116532;28;20014;-69
2023/07/26 12:35:16;;;;;;;;;;;;;;;;;;5112602;28;19924;-69
2023/07/26 12:37:43;;;;;;;;;;;;;;;;;;5112928;28;19931;-69
2023/07/26 12:40:10;;;;;;;;;;;;;;;;;;5112676;28;19966;-69
2023/07/26 12:42:37;;;;;;;;;;;;;;;;;;5118990;28;19930;-69
2023/07/26 12:45:04;;;;;;;;;;;;;;;;;;5117814;28;20014;-69
2023/07/26 12:47:31;;;;;;;;;;;;;;;;;;5114833;28;19924;-69
2023/07/26 12:49:58;;;;;;;;;;;;;;;;;;5117236;28;19923;-69
2023/07/26 12:52:25;;;;;;;;;;;;;;;;;;5129315;28;19930;-71
2023/07/26 12:54:52;;;;;;;;;;;;;;;;;;5122923;28;19929;-71
2023/07/26 12:57:19;;;;;;;;;;;;;;;;;;5132749;28;20022;-70
2023/07/26 12:59:46;;;;;;;;;;;;;;;;;;5133181;28;19923;-70
2023/07/26 13:02:13;;;;;;;;;;;;;;;;;;5132978;28;19930;-70
2023/07/26 13:04:40;;;;;;;;;;;;;;;;;;5133122;28;19933;-71
2023/07/26 13:07:07;;;;;;;;;;;;;;;;;;5131631;28;19927;-71
2023/07/26 13:09:34;;;;;;;;;;;;;;;;;;5132560;28;20377;-71
2023/07/26 13:12:01;;;;;;;;;;;;;;;;;;5132743;28;19969;-72
2023/07/26 13:14:28;;;;;;;;;;;;;;;;;;5123457;28;19994;-71
2023/07/26 13:16:54;;;;;;;;;;;;;;;;;;5120506;27;20442;-71
2023/07/26 13:19:21;;;;;;;;;;;;;;;;;;5116321;28;20335;-70
2023/07/26 13:21:48;;;;;;;;;;;;;;;;;;5116352;28;20335;-70
2023/07/26 13:24:15;;;;;;;;;;;;;;;;;;5116558;27;20002;-69
2023/07/26 13:26:42;;;;;;;;;;;;;;;;;;5115549;28;19931;-69
2023/07/26 13:29:09;;;;;;;;;;;;;;;;;;5119771;27;20010;-69
2023/07/26 13:31:36;;;;;;;;;;;;;;;;;;5116953;28;20378;-68
2023/07/26 13:34:03;;;;;;;;;;;;;;;;;;5116010;28;20401;-69
2023/07/26 13:36:30;;;;;;;;;;;;;;;;;;5115897;28;19977;-69
2023/07/26 13:38:57;;;;;;;;;;;;;;;;;;5115034;28;19970;-69
2023/07/26 13:41:24;;;;;;;;;;;;;;;;;;5115445;27;19971;-69
2023/07/26 13:43:51;;;;;;;;;;;;;;;;;;5121120;27;19969;-69
2023/07/26 13:46:18;;;;;;;;;;;;;;;;;;5135926;27;19930;-69
2023/07/26 13:48:45;;;;;;;;;;;;;;;;;;5135714;27;20011;-69
2023/07/26 13:51:12;;;;;;;;;;;;;;;;;;5136219;27;20022;-69
2023/07/26 13:53:39;;;;;;;;;;;;;;;;;;5135508;27;20138;-69
2023/07/26 13:56:06;;;;;;;;;;;;;;;;;;5135763;27;19992;-69
2023/07/26 13:58:33;;;;;;;;;;;;;;;;;;5125373;27;19931;-69
2023/07/26 14:01:00;;;;;;;;;;;;;;;;;;5123299;27;19923;-69
2023/07/26 14:03:27;;;;;;;;;;;;;;;;;;5118542;27;20019;-69
2023/07/26 14:05:54;;;;;;;;;;;;;;;;;;5115117;28;20011;-69
2023/07/26 14:08:21;;;;;;;;;;;;;;;;;;5115057;28;20018;-69
2023/07/26 14:10:48;;;;;;;;;;;;;;;;;;5115026;28;19984;-69
2023/07/26 14:13:16;;;;;;;;;;;;;;;;;;5115008;28;19924;-69
2023/07/26 14:15:43;;;;;;;;;;;;;;;;;;5128223;27;19924;-69
2023/07/26 14:18:10;;;;;;;;;;;;;;;;;;5135458;27;20015;-69
2023/07/26 14:20:37;;;;;;;;;;;;;;;;;;5135686;27;19970;-69
2023/07/26 14:23:04;;;;;;;;;;;;;;;;;;5135281;27;20009;-69
2023/07/26 14:25:31;;;;;;;;;;;;;;;;;;5133240;27;20465;-69
2023/07/26 14:27:58;;;;;;;;;;;;;;;;;;5114749;28;19924;-69
2023/07/26 14:30:25;;;;;;;;;;;;;;;;;;5114913;28;20372;-69
2023/07/26 14:32:52;;;;;;;;;;;;;;;;;;5115137;27;19959;-69
2023/07/26 14:35:19;;;;;;;;;;;;;;;;;;5115008;28;19967;-70
2023/07/26 14:37:46;;;;;;;;;;;;;;;;;;5114436;28;19923;-70
2023/07/26 14:40:13;;;;;;;;;;;;;;;;;;5113968;28;20015;-70
2023/07/26 14:42:40;;;;;;;;;;;;;;;;;;5114184;28;20367;-70
2023/07/26 14:45:07;;;;;;;;;;;;;;;;;;5113946;28;20018;-70
2023/07/26 14:47:34;;;;;;;;;;;;;;;;;;5114461;28;20007;-70
2023/07/26 14:50:01;;;;;;;;;;;;;;;;;;5114341;27;20018;-70
2023/07/26 14:52:28;;;;;;;;;;;;;;;;;;5114223;28;20002;-69
2023/07/26 14:54:55;;;;;;;;;;;;;;;;;;5128310;27;19986;-70
2023/07/26 14:57:22;;;;;;;;;;;;;;;;;;5134658;27;20026;-71
2023/07/26 14:59:49;;;;;;;;;;;;;;;;;;5134526;27;20009;-71
2023/07/26 15:02:18;;;;;;;;;;;;;;;;;;5134336;27;20015;-69
2023/07/26 15:04:45;;;;;;;;;;;;;;;;;;5134512;27;19923;-67
2023/07/26 15:07:12;;;;;;;;;;;;;;;;;;5121841;27;20030;-69
2023/07/26 15:09:39;;;;;;;;;;;;;;;;;;5113446;28;20005;-70
2023/07/26 15:12:06;;;;;;;;;;;;;;;;;;5113568;28;19924;-69
2023/07/26 15:14:34;;;;;;;;;;;;;;;;;;5133239;27;20023;-69
2023/07/26 15:17:01;;;;;;;;;;;;;;;;;;5133770;27;19948;-70
2023/07/26 15:19:28;;;;;;;;;;;;;;;;;;5134134;27;19927;-69
2023/07/26 15:21:55;;;;;;;;;;;;;;;;;;5134361;27;20015;-70
2023/07/26 15:24:22;;;;;;;;;;;;;;;;;;5114914;27;19934;-69
2023/07/26 15:26:49;;;;;;;;;;;;;;;;;;5113288;28;20401;-69
2023/07/26 15:29:15;;;;;;;;;;;;;;;;;;5113721;28;19997;-69
2023/07/26 15:31:42;;;;;;;;;;;;;;;;;;5113310;28;19975;-69
2023/07/26 15:34:09;;;;;;;;;;;;;;;;;;5112900;28;19986;-69
2023/07/26 15:36:36;;;;;;;;;;;;;;;;;;5113043;28;20011;-69
2023/07/26 15:39:04;;;;;;;;;;;;;;;;;;5113186;28;20014;-69
2023/07/26 15:41:31;;;;;;;;;;;;;;;;;;5113310;27;19924;-69
2023/07/26 15:43:58;;;;;;;;;;;;;;;;;;5112568;28;19962;-70
2023/07/26 15:46:25;;;;;;;;;;;;;;;;;;5113054;28;19977;-70
2023/07/26 15:48:52;;;;;;;;;;;;;;;;;;5118837;27;19945;-70
2023/07/26 15:51:19;;;;;;;;;;;;;;;;;;5117564;27;20400;-70
2023/07/26 15:53:49;;;;;;;;;;;;;;;;;;5112908;28;19971;-70
2023/07/26 15:56:16;;;;;;;;;;;;;;;;;;5114678;28;19924;-69
2023/07/26 15:58:43;;;;;;;;;;;;;;;;;;5133558;27;20010;-69
2023/07/26 16:01:10;;;;;;;;;;;;;;;;;;5133432;27;20022;-69
2023/07/26 16:03:37;;;;;;;;;;;;;;;;;;5133774;27;20335;-69
2023/07/26 16:06:04;;;;;;;;;;;;;;;;;;5132689;27;19924;-69
2023/07/26 16:08:31;;;;;;;;;;;;;;;;;;5116038;27;19923;-69
2023/07/26 16:10:58;;;;;;;;;;;;;;;;;;5112659;28;20469;-69
2023/07/26 16:13:25;;;;;;;;;;;;;;;;;;5113165;28;20385;-69
2023/07/26 16:15:52;;;;;;;;;;;;;;;;;;5112924;28;20014;-69
2023/07/26 16:18:19;;;;;;;;;;;;;;;;;;5112743;28;19924;-70
2023/07/26 16:20:46;;;;;;;;;;;;;;;;;;5112869;28;20026;-70
2023/07/26 16:23:13;;;;;;;;;;;;;;;;;;5112677;28;20022;-69
2023/07/26 16:25:42;;;;;;;;;;;;;;;;;;5112713;28;20025;-69
2023/07/26 16:28:08;;;;;;;;;;;;;;;;;;5112700;28;19924;-67
2023/07/26 16:30:35;;;;;;;;;;;;;;;;;;5116277;28;20382;-68
2023/07/26 16:33:02;;;;;;;;;;;;;;;;;;5133254;28;20370;-69
2023/07/26 16:35:29;;;;;;;;;;;;;;;;;;5133233;28;19970;-68
2023/07/26 16:37:56;;;;;;;;;;;;;;;;;;5132846;28;19923;-68
2023/07/26 16:40:23;;;;;;;;;;;;;;;;;;5132977;28;20328;-69
2023/07/26 16:42:50;;;;;;;;;;;;;;;;;;5132604;28;20036;-68